Time;durP1;ratioP1;P1;durP2;ratioP2;P2;SDS_P1;SDS_P2;PMS_P1;PMS_P2;Temp;Humidity;BMP_temperature;BMP_pressure;BME280_temperature;BME280_humidity;BME280_pressure;Samples;Min_cycle;Max_cycle;Signal;HPM_P1;HPM_P2
2021/03/12 00:00:26;;;;;;;4.50;2.57;;;;;;;7.97;79.31;97870.53;5111102;27;43587;-77
2021/03/12 00:02:53;;;;;;;5.07;2.63;;;;;;;7.96;79.72;97887.28;5089242;28;41233;-77
2021/03/12 00:05:20;;;;;;;5.33;2.70;;;;;;;7.85;80.16;97900.34;5089319;28;39881;-78
2021/03/12 00:07:47;;;;;;;4.37;2.70;;;;;;;7.93;80.17;98006.09;5074355;28;40662;-78
2021/03/12 00:10:17;;;;;;;7.20;2.80;;;;;;;7.69;78.57;98036.69;5092775;28;42821;-77
2021/03/12 00:12:45;;;;;;;2.97;1.00;;;;;;;7.06;73.40;98058.19;5109771;28;42928;-78
2021/03/12 00:15:16;;;;;;;1.50;0.70;;;;;;;6.52;74.35;98050.06;5092890;28;40858;-77
2021/03/12 00:17:45;;;;;;;1.63;0.80;;;;;;;6.21;75.35;98027.31;5110278;28;41529;-78
2021/03/12 00:20:14;;;;;;;2.93;0.80;;;;;;;6.01;76.53;98007.47;5109340;28;42743;-79
2021/03/12 00:22:42;;;;;;;1.60;0.60;;;;;;;5.99;76.75;98024.25;5109855;28;42032;-77
2021/03/12 00:25:12;;;;;;;0.90;0.60;;;;;;;5.75;77.27;98024.69;5093029;28;39943;-76
2021/03/12 00:27:40;;;;;;;1.93;0.73;;;;;;;5.70;77.45;98033.75;5108846;28;41739;-78
2021/03/12 00:30:11;;;;;;;2.53;0.90;;;;;;;5.57;77.70;98025.69;5092434;28;43003;-77
2021/03/12 00:32:39;;;;;;;1.50;0.60;;;;;;;5.55;78.02;98019.72;5109810;28;43017;-77
2021/03/12 00:35:07;;;;;;;2.50;0.70;;;;;;;5.50;78.14;97971.84;5110701;27;39893;-77
2021/03/12 00:37:35;;;;;;;1.57;0.70;;;;;;;5.34;77.71;97913.25;5092402;28;42009;-78
2021/03/12 00:40:09;;;;;;;1.97;0.50;;;;;;;5.31;77.63;97951.03;5109523;28;42399;-78
2021/03/12 00:42:36;;;;;;;0.70;0.50;;;;;;;5.36;77.55;97932.38;5092967;28;41264;-77
2021/03/12 00:45:04;;;;;;;1.00;0.50;;;;;;;5.25;77.60;97946.09;5109775;28;38931;-77
2021/03/12 00:47:33;;;;;;;0.67;0.40;;;;;;;5.25;77.21;97934.75;5109289;28;41622;-77
2021/03/12 00:50:00;;;;;;;2.93;0.70;;;;;;;5.21;78.05;97954.22;5112172;27;41805;-76
2021/03/12 00:52:27;;;;;;;0.80;0.50;;;;;;;5.17;78.05;97969.31;5113111;28;42061;-78
2021/03/12 00:54:54;;;;;;;2.07;0.70;;;;;;;5.24;77.91;97981.16;5112429;28;40588;-77
2021/03/12 00:57:47;;;;;;;1.17;0.60;;;;;;;5.27;78.43;97978.38;5109942;28;40983;-78
2021/03/12 01:00:16;;;;;;;2.30;0.47;;;;;;;5.25;78.10;97919.00;5095749;28;41902;-77
2021/03/12 01:02:45;;;;;;;2.50;0.60;;;;;;;5.36;77.91;97951.59;5095346;28;42011;-77
2021/03/12 01:05:13;;;;;;;1.70;0.60;;;;;;;5.35;78.05;97959.56;5131345;28;40995;-78
2021/03/12 01:07:40;;;;;;;1.33;0.73;;;;;;;5.38;78.21;97973.38;5133592;27;41970;-76
2021/03/12 01:10:09;;;;;;;1.07;0.53;;;;;;;5.41;78.22;97994.22;5132908;28;43496;-76
2021/03/12 01:12:37;;;;;;;0.87;0.60;;;;;;;5.43;77.80;97980.16;5132580;28;42701;-77
2021/03/12 01:15:08;;;;;;;4.07;1.23;;;;;;;5.34;77.48;97989.38;5115897;28;38734;-78
2021/03/12 01:17:36;;;;;;;1.60;0.63;;;;;;;5.34;77.76;97961.34;5121726;28;42005;-78
2021/03/12 01:20:07;;;;;;;3.30;0.70;;;;;;;5.37;77.57;98003.19;5094956;28;41787;-76
2021/03/12 01:22:35;;;;;;;3.43;0.67;;;;;;;5.36;77.76;98001.47;5112216;28;42345;-77
2021/03/12 01:25:07;;;;;;;1.53;0.90;;;;;;;5.33;77.47;98011.31;5112404;28;40085;-76
2021/03/12 01:27:53;;;;;;;3.27;0.80;;;;;;;4.97;77.71;97974.78;5112368;28;42273;-78
2021/03/12 01:30:23;;;;;;;2.47;1.33;;;;;;;5.22;77.83;98030.25;5095199;28;42026;-76
2021/03/12 01:32:52;;;;;;;2.03;0.70;;;;;;;5.31;77.39;98034.19;5135762;27;42989;-76
2021/03/12 01:35:21;;;;;;;4.07;1.00;;;;;;;5.32;77.59;98033.22;5091632;28;39878;-76
2021/03/12 01:37:50;;;;;;;2.83;0.90;;;;;;;5.37;77.51;98044.34;5091577;28;42484;-77
2021/03/12 01:40:20;;;;;;;2.43;0.77;;;;;;;5.20;77.88;98037.38;5091239;28;42794;-76
2021/03/12 01:42:50;;;;;;;2.10;0.80;;;;;;;5.35;77.34;98057.53;5108834;28;42066;-76
2021/03/12 01:45:20;;;;;;;3.33;1.10;;;;;;;5.35;77.57;98041.78;5074769;28;38975;-77
2021/03/12 01:47:49;;;;;;;1.93;0.83;;;;;;;5.21;77.13;98022.47;5091584;28;41646;-78
2021/03/12 01:50:16;;;;;;;2.17;0.93;;;;;;;5.35;77.10;98041.78;5091268;28;42826;-77
2021/03/12 01:52:46;;;;;;;2.90;1.10;;;;;;;5.28;77.03;98043.06;5090850;28;41324;-77
2021/03/12 01:55:16;;;;;;;3.00;0.93;;;;;;;5.09;77.11;98021.34;5086281;28;39319;-76
2021/03/12 01:57:45;;;;;;;3.20;0.90;;;;;;;5.25;76.89;98039.75;5094809;28;41727;-77
2021/03/12 02:00:42;;;;;;;3.30;1.20;;;;;;;5.24;77.09;98043.31;5101409;27;42904;-77
2021/03/12 02:03:34;;;;;;;2.73;1.10;;;;;;;5.22;76.82;98047.78;5109443;27;41959;-77
2021/03/12 02:06:12;;;;;;;1.27;1.17;;;;;;;5.05;76.61;98027.72;5094588;28;39863;-77
2021/03/12 02:08:43;;;;;;;4.23;1.10;;;;;;;5.23;76.70;98052.97;5094758;28;40636;-78
2021/03/12 02:11:20;;;;;;;3.73;1.20;;;;;;;5.25;76.80;98050.25;5094924;28;41740;-76
2021/03/12 02:13:56;;;;;;;7.30;1.20;;;;;;;5.27;76.12;98059.75;5094764;28;40949;-76
2021/03/12 02:16:29;;;;;;;3.93;1.30;;;;;;;5.28;75.57;98050.94;5111787;28;40273;-77
2021/03/12 02:19:04;;;;;;;4.47;1.50;;;;;;;5.30;75.72;98064.84;5094391;28;41208;-80
2021/03/12 02:21:38;;;;;;;3.37;1.13;;;;;;;5.32;75.68;98056.84;5094751;28;41712;-78
2021/03/12 02:24:16;;;;;;;1.67;1.00;;;;;;;5.19;75.41;98046.19;5094769;28;41869;-77
2021/03/12 02:27:02;;;;;;;3.03;1.00;;;;;;;5.28;75.23;98045.69;5094788;28;39244;-77
2021/03/12 02:29:34;;;;;;;1.63;1.20;;;;;;;5.26;75.23;98079.06;5111275;28;41739;-78
2021/03/12 02:32:03;;;;;;;2.20;1.20;;;;;;;5.25;75.20;98082.59;5093888;28;42956;-77
2021/03/12 02:34:34;;;;;;;1.87;0.90;;;;;;;5.25;74.70;98108.84;5111068;28;41473;-77
2021/03/12 02:37:09;;;;;;;1.10;0.87;;;;;;;5.27;74.63;98112.25;5094399;27;38711;-77
2021/03/12 02:39:49;;;;;;;5.33;1.03;;;;;;;5.31;74.44;98097.19;5111203;28;41741;-77
2021/03/12 02:42:19;;;;;;;1.90;0.93;;;;;;;5.30;73.90;98106.00;5113658;27;41967;-78
2021/03/12 02:44:50;;;;;;;1.87;1.07;;;;;;;5.30;73.60;98117.34;5131851;27;42961;-78
2021/03/12 02:47:23;;;;;;;2.47;1.17;;;;;;;5.26;73.30;98100.03;5117876;27;40012;-78
2021/03/12 02:49:52;;;;;;;1.87;1.10;;;;;;;5.31;73.28;98108.53;5094099;28;41028;-77
2021/03/12 02:52:20;;;;;;;2.77;1.00;;;;;;;5.30;73.15;98121.75;5111096;28;42963;-78
2021/03/12 02:54:48;;;;;;;2.97;1.00;;;;;;;5.26;73.45;98130.69;5111164;28;43035;-77
2021/03/12 02:57:21;;;;;;;2.83;1.00;;;;;;;5.23;72.94;98126.44;5110750;28;40017;-78
2021/03/12 02:59:55;;;;;;;3.30;1.23;;;;;;;5.24;73.30;98122.91;5090701;28;42035;-78
2021/03/12 03:02:55;;;;;;;3.77;1.03;;;;;;;5.29;72.94;98127.91;5091254;28;43596;-78
2021/03/12 03:05:42;;;;;;;2.17;1.00;;;;;;;5.22;72.93;98124.75;5091554;28;42139;-78
2021/03/12 03:08:12;;;;;;;3.67;1.30;;;;;;;5.22;73.46;98131.78;5090639;28;40296;-78
2021/03/12 03:10:41;;;;;;;2.40;1.10;;;;;;;5.30;73.12;98127.84;5072983;28;40867;-79
2021/03/12 03:13:10;;;;;;;4.60;1.27;;;;;;;5.34;72.77;98152.13;5093583;28;41831;-78
2021/03/12 03:15:38;;;;;;;3.17;1.20;;;;;;;5.43;73.00;98142.94;5093733;28;41257;-78
2021/03/12 03:18:10;;;;;;;3.47;1.20;;;;;;;5.47;72.82;98161.06;5094339;28;40201;-76
2021/03/12 03:20:43;;;;;;;3.93;1.33;;;;;;;5.64;71.89;98163.66;5092975;28;41579;-77
2021/03/12 03:23:10;;;;;;;2.87;1.10;;;;;;;5.83;71.17;98174.00;5110797;28;43517;-79
2021/03/12 03:25:38;;;;;;;3.73;1.10;;;;;;;5.90;70.74;98169.31;5110187;28;42985;-78
2021/03/12 03:28:11;;;;;;;3.90;1.23;;;;;;;6.04;70.03;98175.50;5110308;28;39944;-78
2021/03/12 03:30:38;;;;;;;4.50;1.37;;;;;;;6.09;69.38;98172.59;5093562;28;41616;-78
2021/03/12 03:33:09;;;;;;;2.03;1.00;;;;;;;6.13;68.82;98182.88;5110836;28;41845;-77
2021/03/12 03:35:36;;;;;;;4.20;1.17;;;;;;;6.17;68.65;98193.22;5109665;28;42383;-77
2021/03/12 03:38:04;;;;;;;4.30;1.40;;;;;;;6.21;68.26;98190.31;5109538;28;40902;-78
2021/03/12 03:40:32;;;;;;;4.23;1.57;;;;;;;6.20;68.12;98185.16;5093472;28;41096;-77
2021/03/12 03:43:01;;;;;;;2.07;1.10;;;;;;;6.33;67.34;98207.19;5093363;28;41671;-77
2021/03/12 03:45:32;;;;;;;2.90;1.10;;;;;;;6.39;67.58;98199.84;5110338;28;41419;-77
2021/03/12 03:48:08;;;;;;;2.27;0.90;;;;;;;6.45;67.27;98217.03;5110251;28;40042;-77
2021/03/12 03:50:39;;;;;;;3.53;1.10;;;;;;;6.41;66.50;98207.63;5109823;28;41670;-77
2021/03/12 03:53:08;;;;;;;3.03;1.10;;;;;;;6.27;66.09;98212.81;5093167;28;41380;-77
2021/03/12 03:55:36;;;;;;;3.63;1.57;;;;;;;6.37;66.10;98242.91;5093092;28;41732;-77
2021/03/12 03:58:06;;;;;;;2.37;1.03;;;;;;;6.33;66.49;98236.13;5093129;28;39201;-77
2021/03/12 04:00:35;;;;;;;2.93;1.00;;;;;;;6.29;66.10;98242.50;5109838;28;41621;-78
2021/03/12 04:03:07;;;;;;;4.80;1.33;;;;;;;6.25;66.18;98246.22;5089518;28;43091;-78
2021/03/12 04:05:42;;;;;;;2.80;1.00;;;;;;;6.24;66.57;98247.16;5079017;28;41221;-78
2021/03/12 04:08:10;;;;;;;3.57;1.20;;;;;;;6.11;66.54;98242.56;5109858;28;40142;-78
2021/03/12 04:10:37;;;;;;;4.70;1.17;;;;;;;6.01;66.70;98254.50;5109712;28;41732;-77
2021/03/12 04:13:05;;;;;;;2.27;1.00;;;;;;;5.92;67.22;98262.03;5109396;28;41742;-77
2021/03/12 04:15:32;;;;;;;3.17;1.00;;;;;;;5.87;67.50;98254.38;5109653;28;42768;-78
2021/03/12 04:18:03;;;;;;;1.30;1.20;;;;;;;5.78;67.75;98260.13;5109614;28;40113;-77
2021/03/12 04:20:32;;;;;;;4.77;1.50;;;;;;;5.65;67.70;98253.81;5092478;28;40674;-77
2021/03/12 04:23:01;;;;;;;5.07;1.60;;;;;;;5.67;67.65;98257.19;5092948;28;42915;-78
2021/03/12 04:25:33;;;;;;;4.60;1.40;;;;;;;5.77;67.69;98268.91;5096204;28;42507;-79
2021/03/12 04:28:01;;;;;;;3.27;1.27;;;;;;;5.87;68.08;98278.00;5113201;28;41417;-78
2021/03/12 04:30:29;;;;;;;3.03;1.30;;;;;;;5.70;67.42;98236.00;5113111;28;41346;-76
2021/03/12 04:32:57;;;;;;;2.93;1.10;;;;;;;6.04;67.44;98283.25;5113078;28;42741;-77
2021/03/12 04:35:26;;;;;;;3.13;1.20;;;;;;;6.12;66.11;98296.00;5112771;28;43012;-78
2021/03/12 04:37:57;;;;;;;5.57;1.47;;;;;;;6.20;66.06;98298.19;5113430;28;39149;-78
2021/03/12 04:40:24;;;;;;;4.73;1.10;;;;;;;6.24;65.83;98291.84;5096157;28;41166;-77
2021/03/12 04:42:52;;;;;;;4.73;1.30;;;;;;;6.26;66.08;98300.50;5113061;28;42535;-77
2021/03/12 04:45:22;;;;;;;3.43;1.00;;;;;;;6.31;65.87;98314.25;5112944;28;42039;-78
2021/03/12 04:47:55;;;;;;;2.97;1.07;;;;;;;6.34;65.84;98306.19;5113046;28;39687;-78
2021/03/12 04:50:25;;;;;;;5.20;1.80;;;;;;;6.32;65.61;98308.03;5095624;28;40710;-78
2021/03/12 04:52:56;;;;;;;4.03;1.10;;;;;;;6.26;64.99;98297.88;5095937;28;42645;-78
2021/03/12 04:55:23;;;;;;;4.87;1.20;;;;;;;6.36;64.96;98333.25;5114165;27;42270;-77
2021/03/12 04:57:54;;;;;;;4.93;1.27;;;;;;;6.38;64.94;98324.38;5095976;28;39251;-78
2021/03/12 05:00:23;;;;;;;5.80;1.73;;;;;;;6.45;64.64;98340.66;5095756;28;41709;-78
2021/03/12 05:02:57;;;;;;;5.57;1.50;;;;;;;6.33;64.71;98323.75;5113015;28;43429;-78
2021/03/12 05:05:27;;;;;;;5.73;1.73;;;;;;;6.34;64.50;98327.22;5112264;28;41954;-76
2021/03/12 05:07:56;;;;;;;2.57;1.10;;;;;;;6.38;64.75;98339.28;5096031;28;39260;-78
2021/03/12 05:10:29;;;;;;;2.97;1.20;;;;;;;6.33;64.56;98354.47;5095998;28;41677;-77
2021/03/12 05:12:57;;;;;;;5.97;1.03;;;;;;;6.06;64.84;98318.19;5095684;28;43132;-77
2021/03/12 05:15:26;;;;;;;2.70;1.27;;;;;;;5.99;65.30;98332.59;5111569;28;41927;-77
2021/03/12 05:17:53;;;;;;;3.37;1.30;;;;;;;6.00;65.87;98347.44;5112858;28;40889;-77
2021/03/12 05:20:20;;;;;;;6.23;1.13;;;;;;;5.87;65.94;98350.72;5095134;28;40559;-77
2021/03/12 05:22:47;;;;;;;6.97;1.30;;;;;;;5.76;65.66;98340.78;5111676;28;43313;-79
2021/03/12 05:25:16;;;;;;;5.77;1.53;;;;;;;5.78;65.40;98352.91;5091458;28;42511;-78
2021/03/12 05:27:44;;;;;;;2.47;1.00;;;;;;;5.73;65.57;98364.56;5092752;28;39073;-77
2021/03/12 05:30:12;;;;;;;5.67;1.20;;;;;;;5.64;65.51;98352.75;5112285;28;41814;-77
2021/03/12 05:32:41;;;;;;;5.03;1.40;;;;;;;5.64;65.69;98346.66;5094736;28;41956;-77
2021/03/12 05:35:11;;;;;;;8.17;1.43;;;;;;;5.63;65.81;98350.22;5110635;28;43006;-77
2021/03/12 05:37:38;;;;;;;6.17;1.47;;;;;;;5.76;65.93;98372.31;5095589;28;39862;-78
2021/03/12 05:40:07;;;;;;;4.50;1.63;;;;;;;5.67;65.55;98357.03;5111707;28;41696;-78
2021/03/12 05:42:41;;;;;;;4.00;1.33;;;;;;;5.77;66.00;98380.13;5095477;28;42077;-78
2021/03/12 05:45:10;;;;;;;5.50;1.30;;;;;;;5.65;65.65;98370.22;5112183;28;42182;-77
2021/03/12 05:47:45;;;;;;;3.77;1.30;;;;;;;5.77;65.29;98389.78;5092012;28;39281;-78
2021/03/12 05:50:13;;;;;;;6.73;1.47;;;;;;;5.75;65.75;98391.63;5091574;28;40719;-77
2021/03/12 05:52:41;;;;;;;4.17;1.27;;;;;;;5.56;65.49;98359.34;5110133;28;42750;-78
2021/03/12 05:55:09;;;;;;;5.50;1.40;;;;;;;5.68;65.59;98379.75;5095160;28;41337;-78
2021/03/12 05:57:38;;;;;;;5.73;1.67;;;;;;;5.85;65.26;98400.72;5111896;28;39104;-78
2021/03/12 06:00:06;;;;;;;6.10;1.57;;;;;;;5.94;65.39;98394.19;5113231;27;41665;-77
2021/03/12 06:02:44;;;;;;;4.13;1.10;;;;;;;6.09;64.93;98401.28;5113150;27;43608;-79
2021/03/12 06:05:19;;;;;;;5.90;1.20;;;;;;;6.13;64.24;98398.44;5094581;28;41266;-78
2021/03/12 06:07:49;;;;;;;4.70;1.10;;;;;;;6.24;64.32;98399.66;5112077;28;39593;-77
2021/03/12 06:10:16;;;;;;;5.30;1.50;;;;;;;6.36;63.75;98404.25;5111072;28;41419;-77
2021/03/12 06:12:44;;;;;;;6.67;1.67;;;;;;;6.45;64.03;98398.50;5094917;28;43091;-79
2021/03/12 06:15:12;;;;;;;10.23;6.33;;;;;;;6.54;63.98;98391.94;5094821;28;41646;-78
2021/03/12 06:17:47;;;;;;;3.30;1.63;;;;;;;6.48;63.86;98377.31;5111733;28;40418;-78
2021/03/12 06:20:20;;;;;;;4.97;1.43;;;;;;;6.61;64.05;98399.41;5111030;28;40690;-77
2021/03/12 06:22:50;;;;;;;6.63;1.90;;;;;;;6.68;63.23;98400.75;5111702;28;41714;-79
2021/03/12 06:25:19;;;;;;;6.53;1.37;;;;;;;6.66;62.98;98394.75;5110900;28;43014;-78
2021/03/12 06:28:17;;;;;;;3.37;1.50;;;;;;;6.88;62.90;98414.63;5110666;28;40084;-77
2021/03/12 06:31:27;;;;;;;3.00;1.87;;;;;;;6.95;62.64;98398.41;5068710;28;42451;-78
2021/03/12 06:34:13;;;;;;;5.67;1.40;;;;;;;7.06;62.67;98416.22;5069016;28;42539;-77
2021/03/12 06:36:54;;;;;;;4.77;1.80;;;;;;;7.12;62.16;98421.19;5099366;28;41967;-77
2021/03/12 06:39:32;;;;;;;5.83;1.57;;;;;;;7.21;61.86;98418.03;5094761;28;39052;-77
2021/03/12 06:42:08;;;;;;;4.20;1.27;;;;;;;7.24;61.46;98409.97;5111079;28;41561;-78
2021/03/12 06:44:40;;;;;;;4.23;1.47;;;;;;;7.38;60.92;98428.47;5094547;28;42935;-79
2021/03/12 06:47:20;;;;;;;3.07;1.10;;;;;;;7.34;61.37;98421.66;5093661;28;42130;-78
2021/03/12 06:49:56;;;;;;;7.00;1.87;;;;;;;7.46;60.89;98425.41;5110986;28;40764;-76
2021/03/12 06:52:33;;;;;;;3.37;1.20;;;;;;;7.55;61.06;98441.53;5111248;28;41388;-77
2021/03/12 06:55:02;;;;;;;6.20;1.37;;;;;;;7.55;60.21;98441.53;5093904;28;42682;-77
2021/03/12 06:58:08;;;;;;;4.17;1.80;;;;;;;7.60;60.85;98437.78;5103812;28;42010;-77
2021/03/12 07:00:41;;;;;;;5.03;1.50;;;;;;;7.74;60.45;98446.59;5087308;28;41029;-76
2021/03/12 07:06:23;;;;;;;4.57;1.60;;;;;;;8.00;59.65;98463.56;5096570;28;42809;-78
2021/03/12 07:08:55;;;;;;;4.07;1.47;;;;;;;8.12;59.84;98461.97;5110822;28;43120;-78
2021/03/12 07:11:44;;;;;;;5.23;1.63;;;;;;;8.20;59.22;98472.91;5093600;28;40406;-78
2021/03/12 07:14:40;;;;;;;5.80;1.30;;;;;;;8.21;58.88;98467.56;5112086;27;41828;-79
2021/03/12 07:17:34;;;;;;;5.07;1.47;;;;;;;8.56;59.10;98483.94;5094021;27;43179;-78
2021/03/12 07:20:13;;;;;;;5.97;1.53;;;;;;;8.77;58.42;98487.09;5093713;27;41293;-78
2021/03/12 07:22:43;;;;;;;5.87;1.53;;;;;;;8.96;57.69;98503.50;5105520;28;38960;-79
2021/03/12 07:25:11;;;;;;;6.00;1.60;;;;;;;9.02;57.53;98480.31;5110492;28;42128;-76
2021/03/12 07:27:47;;;;;;;7.17;1.77;;;;;;;9.01;57.24;98497.94;5110870;28;20249;-77
2021/03/12 07:30:19;;;;;;;4.80;1.30;;;;;;;8.91;57.54;98489.72;5093382;28;42179;-79
2021/03/12 07:32:55;;;;;;;4.80;1.80;;;;;;;9.00;57.90;98510.31;5093301;28;39794;-79
2021/03/12 07:35:33;;;;;;;5.67;1.70;;;;;;;8.86;58.03;98490.97;5093276;28;40854;-78
2021/03/12 07:38:24;;;;;;;4.97;2.13;;;;;;;8.87;58.58;98514.63;5093527;28;42562;-77
2021/03/12 07:41:04;;;;;;;4.40;1.30;;;;;;;8.86;57.82;98526.13;5109979;28;42323;-78
2021/03/12 07:43:55;;;;;;;5.37;1.37;;;;;;;8.71;58.52;98503.28;5104944;28;39830;-77
2021/03/12 07:46:38;;;;;;;6.17;1.83;;;;;;;8.71;58.53;98519.13;5092825;28;41993;-78
2021/03/12 07:49:41;;;;;;;4.03;1.60;;;;;;;8.82;59.10;98527.25;5109763;28;42490;-79
2021/03/12 07:52:48;;;;;;;3.37;1.50;;;;;;;8.96;58.77;98524.63;5104430;28;42086;-79
2021/03/12 07:55:51;;;;;;;3.83;1.60;;;;;;;9.19;58.46;98530.28;5110465;28;40880;-79
2021/03/12 07:59:01;;;;;;;5.23;1.60;;;;;;;9.28;57.47;98503.28;5086482;28;42662;-78
2021/03/12 08:02:00;;;;;;;5.30;1.47;;;;;;;9.77;56.79;98547.78;5079294;28;42663;-76
2021/03/12 08:04:49;;;;;;;7.70;2.00;;;;;;;9.94;56.30;98548.38;5109639;28;42696;-76
2021/03/12 08:07:45;;;;;;;2.53;1.40;;;;;;;10.33;55.73;98552.03;5089030;28;39708;-80
2021/03/12 08:10:18;;;;;;;6.17;1.50;;;;;;;10.61;54.41;98556.34;5089323;28;41683;-77
2021/03/12 08:12:59;;;;;;;4.10;1.03;;;;;;;11.00;53.84;98558.91;5088875;28;43617;-78
2021/03/12 08:15:41;;;;;;;6.77;1.40;;;;;;;11.22;52.44;98552.13;5107485;28;41198;-78
2021/03/12 08:18:26;;;;;;;3.67;1.20;;;;;;;11.81;51.37;98550.56;5109813;28;40208;-78
2021/03/12 08:21:36;;;;;;;3.87;1.40;;;;;;;12.47;50.14;98576.63;5108781;28;41077;-78
2021/03/12 08:24:46;;;;;;;4.87;1.50;;;;;;;12.86;47.74;98593.16;5093522;28;41920;-79
2021/03/12 08:27:52;;;;;;;4.03;1.50;;;;;;;12.71;47.66;98597.00;5092974;28;41974;-81
2021/03/12 08:30:45;;;;;;;4.80;1.20;;;;;;;12.41;47.37;98574.41;5015134;28;39128;-77
2021/03/12 08:33:37;;;;;;;8.20;1.60;;;;;;;12.49;47.43;98595.06;5014887;28;41995;-77
2021/03/12 08:36:27;;;;;;;4.03;1.63;;;;;;;12.39;47.03;98600.22;5087224;28;42659;-79
2021/03/12 08:39:28;;;;;;;4.73;1.77;;;;;;;12.47;47.01;98597.88;5110890;27;42321;-77
2021/03/12 08:42:18;;;;;;;4.90;1.13;;;;;;;12.58;46.11;98605.03;5098780;27;39967;-78
2021/03/12 08:45:06;;;;;;;4.37;1.30;;;;;;;12.82;45.64;98605.84;5108824;28;40773;-77
2021/03/12 08:48:06;;;;;;;5.60;1.57;;;;;;;13.59;44.46;98603.47;5088941;28;42920;-78
2021/03/12 08:50:34;;;;;;;5.23;1.43;;;;;;;14.31;42.61;98612.69;5088890;28;41603;-78
2021/03/12 08:53:04;;;;;;;3.77;1.50;;;;;;;14.84;41.41;98586.09;5108937;28;40518;-80
2021/03/12 08:55:51;;;;;;;4.27;1.50;;;;;;;15.27;39.85;98623.31;5092361;28;40909;-79
2021/03/12 08:58:23;;;;;;;4.03;1.50;;;;;;;14.97;40.44;98620.56;5109344;28;42506;-77
2021/03/12 09:01:09;;;;;;;3.80;1.57;;;;;;;14.77;40.95;98608.06;5092007;28;42195;-81
2021/03/12 09:03:48;;;;;;;4.87;2.03;;;;;;;16.93;37.16;98631.75;5092865;28;41484;-81
2021/03/12 09:06:35;;;;;;;3.57;1.37;;;;;;;16.68;36.94;98639.34;5109122;28;41642;-79
2021/03/12 09:09:11;;;;;;;3.30;1.33;;;;;;;15.91;36.73;98654.31;5109786;28;42748;-79
2021/03/12 09:11:58;;;;;;;5.43;1.60;;;;;;;15.05;38.19;98623.44;5112738;28;41325;-81
2021/03/12 09:14:39;;;;;;;3.67;1.40;;;;;;;14.58;39.34;98620.28;5112904;28;40649;-78
2021/03/12 09:17:09;;;;;;;2.73;1.07;;;;;;;14.00;39.76;98635.63;5112339;28;41127;-79
2021/03/12 09:19:38;;;;;;;6.67;1.57;;;;;;;13.53;41.04;98611.91;5118889;28;41729;-79
2021/03/12 09:22:13;;;;;;;5.53;1.30;;;;;;;13.19;41.60;98611.88;5132149;28;43840;-80
2021/03/12 09:24:52;;;;;;;3.43;1.23;;;;;;;13.01;41.98;98612.41;5117214;28;39241;-79
2021/03/12 09:27:21;;;;;;;3.77;1.50;;;;;;;12.59;42.68;98591.63;5114739;28;40805;-78
2021/03/12 09:30:05;;;;;;;3.83;1.50;;;;;;;12.33;43.43;98579.44;5109858;28;41698;-80
2021/03/12 09:32:38;;;;;;;3.33;1.20;;;;;;;12.37;43.78;98570.28;5090541;28;41542;-80
2021/03/12 09:35:18;;;;;;;5.93;1.70;;;;;;;13.18;41.92;98580.09;5096608;28;41465;-78
2021/03/12 09:37:48;;;;;;;4.20;1.40;;;;;;;15.34;39.06;98573.78;5095989;28;40497;-80
2021/03/12 09:40:51;;;;;;;2.80;1.17;;;;;;;17.40;35.48;98630.84;5109838;28;43421;-79
2021/03/12 09:43:32;;;;;;;4.43;1.47;;;;;;;18.68;32.30;98634.53;5090808;28;43414;-77
2021/03/12 09:46:08;;;;;;;3.63;1.13;;;;;;;19.42;31.32;98655.66;5109959;28;40971;-78
2021/03/12 09:48:46;;;;;;;5.33;1.30;;;;;;;20.00;29.39;98665.81;5093584;28;40741;-78
2021/03/12 09:51:32;;;;;;;3.30;1.20;;;;;;;20.50;29.34;98689.25;5092753;28;43638;-80
2021/03/12 09:54:02;;;;;;;3.93;1.20;;;;;;;20.57;29.08;98679.50;5109240;28;42714;-82
2021/03/12 09:56:34;;;;;;;3.67;1.13;;;;;;;20.03;28.63;98676.22;5107952;28;40676;-78
2021/03/12 09:59:07;;;;;;;2.47;1.20;;;;;;;19.24;28.93;98611.88;5091093;28;40747;-79
2021/03/12 10:02:04;;;;;;;4.63;1.27;;;;;;;19.30;29.76;98651.53;5070481;28;42714;-78
2021/03/12 10:04:59;;;;;;;3.83;1.27;;;;;;;18.51;30.49;98638.88;5083480;28;41294;-84
2021/03/12 10:07:47;;;;;;;2.23;0.97;;;;;;;18.18;31.29;98637.63;5110620;28;39296;-82
2021/03/12 10:10:28;;;;;;;3.67;1.13;;;;;;;18.58;31.35;98634.59;5095293;28;41261;-82
2021/03/12 10:13:05;;;;;;;4.00;1.20;;;;;;;18.64;29.32;98639.38;5095072;28;42957;-81
2021/03/12 10:15:40;;;;;;;1.40;0.83;;;;;;;18.10;30.66;98573.22;5095015;28;42345;-80
2021/03/12 10:18:23;;;;;;;3.53;1.27;;;;;;;18.49;29.51;98630.13;5095224;28;38923;-81
2021/03/12 10:20:50;;;;;;;6.83;1.70;;;;;;;19.55;29.17;98640.00;5109510;27;42426;-82
2021/03/12 10:23:18;;;;;;;1.93;1.00;;;;;;;20.55;27.09;98649.22;5111064;28;42495;-78
2021/03/12 10:25:46;;;;;;;3.57;1.27;;;;;;;20.06;27.74;98665.16;5111402;28;42076;-78
2021/03/12 10:28:18;;;;;;;4.57;1.10;;;;;;;19.30;28.05;98656.88;5112611;27;40108;-80
2021/03/12 10:30:49;;;;;;;4.80;1.80;;;;;;;18.65;28.59;98661.69;5094473;28;40899;-77
2021/03/12 10:33:19;;;;;;;4.57;1.40;;;;;;;17.64;29.81;98603.63;5111846;27;43049;-76
2021/03/12 10:35:48;;;;;;;4.07;1.47;;;;;;;17.00;30.35;98632.88;5093736;28;41607;-77
2021/03/12 10:38:18;;;;;;;2.90;1.00;;;;;;;16.42;31.42;98622.13;5093960;28;39880;-77
2021/03/12 10:40:47;;;;;;;5.00;1.73;;;;;;;15.97;32.68;98603.84;5094266;28;41735;-80
2021/03/12 10:43:16;;;;;;;3.87;1.20;;;;;;;15.74;31.83;98589.03;5110660;28;42561;-78
2021/03/12 10:45:58;;;;;;;2.80;1.60;;;;;;;15.34;33.50;98576.44;5093977;28;41478;-77
2021/03/12 10:48:28;;;;;;;3.00;1.17;;;;;;;15.15;33.26;98584.34;5094304;28;39372;-77
2021/03/12 10:50:56;;;;;;;3.60;1.30;;;;;;;15.46;33.93;98607.41;5094078;28;41953;-81
2021/03/12 10:53:26;;;;;;;4.33;1.10;;;;;;;15.67;33.93;98609.25;5094695;28;41691;-77
2021/03/12 10:56:01;;;;;;;2.67;1.00;;;;;;;15.56;33.77;98609.34;5110772;28;42273;-78
2021/03/12 10:58:30;;;;;;;3.60;1.13;;;;;;;15.38;33.60;98599.22;5112164;27;40068;-78
2021/03/12 11:01:09;;;;;;;3.20;1.40;;;;;;;15.25;33.86;98611.06;5112068;27;41631;-79
2021/03/12 11:03:37;;;;;;;3.43;0.90;;;;;;;15.20;34.78;98597.31;5093969;28;42293;-79
2021/03/12 11:06:05;;;;;;;2.93;1.17;;;;;;;14.84;34.69;98572.75;5093272;28;41346;-76
2021/03/12 11:08:34;;;;;;;3.00;1.10;;;;;;;14.78;33.97;98604.44;5093749;28;39341;-80
2021/03/12 11:11:02;;;;;;;5.23;1.40;;;;;;;14.92;34.44;98604.13;5093599;28;41111;-79
2021/03/12 11:13:29;;;;;;;4.50;1.97;;;;;;;15.66;33.97;98589.72;5110813;28;42654;-80
2021/03/12 11:15:56;;;;;;;4.47;1.07;;;;;;;15.65;33.38;98592.50;5111890;27;42316;-78
2021/03/12 11:18:26;;;;;;;4.53;1.30;;;;;;;16.26;32.29;98611.09;5087577;28;40181;-78
2021/03/12 11:20:54;;;;;;;4.30;1.63;;;;;;;16.13;32.32;98606.88;5083221;28;42628;-79
2021/03/12 11:23:21;;;;;;;7.30;1.33;;;;;;;17.01;31.33;98602.47;5082480;28;43024;-81
2021/03/12 11:25:48;;;;;;;6.93;1.37;;;;;;;16.77;31.75;98618.94;5073154;28;42916;-77
2021/03/12 11:28:15;;;;;;;3.80;1.33;;;;;;;16.38;31.93;98605.50;5102598;28;40821;-77
2021/03/12 11:30:42;;;;;;;2.30;1.17;;;;;;;16.13;33.01;98596.19;5111684;27;42186;-78
2021/03/12 11:33:09;;;;;;;4.43;1.57;;;;;;;16.24;32.37;98603.22;5087973;28;41764;-79
2021/03/12 11:35:38;;;;;;;3.37;1.30;;;;;;;16.07;32.81;98553.97;5090628;28;43059;-77
2021/03/12 11:38:06;;;;;;;4.83;1.40;;;;;;;16.27;31.52;98592.28;5095284;28;38884;-78
2021/03/12 11:40:34;;;;;;;2.93;1.10;;;;;;;16.05;32.36;98598.69;5108639;28;41968;-77
2021/03/12 11:43:02;;;;;;;3.17;1.17;;;;;;;15.79;31.87;98573.44;5110824;27;42687;-78
2021/03/12 11:45:29;;;;;;;3.47;1.30;;;;;;;16.12;31.98;98589.13;5109985;28;42089;-77
2021/03/12 11:47:58;;;;;;;1.90;1.00;;;;;;;16.19;31.78;98588.59;5091943;28;39182;-78
2021/03/12 11:50:27;;;;;;;2.47;1.17;;;;;;;16.38;31.55;98584.13;5092623;28;40722;-78
2021/03/12 11:52:55;;;;;;;2.53;1.50;;;;;;;16.30;31.30;98592.00;5109687;28;42800;-77
2021/03/12 11:55:23;;;;;;;3.87;1.37;;;;;;;16.08;31.31;98586.88;5109506;28;42651;-77
2021/03/12 11:57:51;;;;;;;4.33;1.50;;;;;;;16.62;31.58;98574.84;5110625;27;39875;-77
2021/03/12 12:00:18;;;;;;;3.50;1.30;;;;;;;19.79;26.89;98608.91;5109741;28;42459;-77
2021/03/12 12:02:45;;;;;;;2.30;1.30;;;;;;;21.23;25.97;98608.66;5092041;28;42687;-78
2021/03/12 12:05:14;;;;;;;3.17;1.13;;;;;;;20.41;26.19;98613.03;5108477;28;41040;-80
2021/03/12 12:07:42;;;;;;;2.93;1.07;;;;;;;19.39;26.66;98618.38;5088440;28;38978;-78
2021/03/12 12:10:13;;;;;;;4.20;1.60;;;;;;;19.24;27.79;98585.88;5072720;28;40468;-79
2021/03/12 12:12:45;;;;;;;3.07;1.40;;;;;;;19.12;28.01;98594.34;5076678;28;41440;-78
2021/03/12 12:15:15;;;;;;;5.70;1.57;;;;;;;18.55;28.47;98580.38;5108638;28;42384;-78